• pl
  • eng

Awiacja
TAF FT 04:30 19.06.2018
  • WIND
  • SIGNIFICANT EURO
  • SIGNIFICANT
  • SIGMET
  • AIRMET
  • TAF FC
  • TAF FT
  • METAR GG30
  • METAR GG00


TAF EPBY 182330Z 1900/1924 20004KT CAVOK
BECMG 1907/1909 27012KT
PROB40 TEMPO 1908/1915 27015G25KT -RA =

TAF EPGD 182330Z 1900/1924 20004KT CAVOK
BECMG 1907/1909 27012KT
PROB40 TEMPO 1908/1915 27016G27KT -RA =

TAF EPKK 182330Z 1900/1924 VRB02KT CAVOK=

TAF EPKK 190230Z 1903/2003 VRB02KT CAVOK=

TAF EPKT 182330Z 1900/1924 32003KT CAVOK=

TAF EPLL 182330Z 1900/1924 VRB02KT CAVOK
BECMG 1907/1909 27010KT
BECMG 1921/1923 VRB02KT=

TAF EPMO 182330Z 1900/1924 VRB02KT CAVOK
BECMG 1908/1910 27012KT=

TAF EPPO 182330Z 1900/1924 25006KT CAVOK
TEMPO 1908/1915 28015G25KT=

TAF AMD EPRZ 190237Z 1902/1924 28004KT 4000 BR NSC
BECMG 1904/1907 CAVOK
TEMPO 1904/1912 SCT040CB=

TAF EPSC 182330Z 1900/1924 18005KT 9999 BKN035
BECMG 1906/1908 27011KT=

TAF EPWA 182330Z 1900/1924 32007KT CAVOK=

TAF EPWA 190230Z 1903/2003 33004KT CAVOK
BECMG 1904/1907 27010KT=

TAF EPWR 182330Z 1900/1924 28006KT CAVOK
TEMPO 1909/1917 28015G25KT=

TAF EPWR 190230Z 1903/2003 28006KT CAVOK
TEMPO 1909/1917 28015G25KT=
Awiacja.imgw.pl jest pogodowym serwisem informacyjnym
Instytutu Meteorologii i Gospodarki Wodnej Państwowego Instytutu Badawczego.
Copyright IMGW PIB 2009-2011© Wszelkie prawa zastrzeżone.